sensor_id;sensor_type;location;lat;lon;timestamp;P1;durP1;ratioP1;P2;durP2;ratioP2
78664;SDS011;67981;51.022;-2.870;2023-07-22T00:02:21;2.42;;;1.20;;
78664;SDS011;67981;51.022;-2.870;2023-07-22T00:04:47;3.38;;;1.10;;
78664;SDS011;67981;51.022;-2.870;2023-07-22T00:07:13;2.72;;;1.23;;
78664;SDS011;67981;51.022;-2.870;2023-07-22T00:09:39;3.08;;;1.25;;
78664;SDS011;67981;51.022;-2.870;2023-07-22T00:12:06;3.58;;;1.42;;
78664;SDS011;67981;51.022;-2.870;2023-07-22T00:14:32;2.75;;;1.20;;
78664;SDS011;67981;51.022;-2.870;2023-07-22T00:16:58;2.47;;;1.30;;
78664;SDS011;67981;51.022;-2.870;2023-07-22T00:19:23;3.88;;;1.40;;
78664;SDS011;67981;51.022;-2.870;2023-07-22T00:21:49;2.15;;;1.27;;
78664;SDS011;67981;51.022;-2.870;2023-07-22T00:24:14;2.55;;;1.23;;
78664;SDS011;67981;51.022;-2.870;2023-07-22T00:26:40;2.17;;;1.27;;
78664;SDS011;67981;51.022;-2.870;2023-07-22T00:29:05;3.28;;;1.55;;
78664;SDS011;67981;51.022;-2.870;2023-07-22T00:31:30;2.15;;;1.00;;
78664;SDS011;67981;51.022;-2.870;2023-07-22T00:33:56;2.17;;;1.20;;
78664;SDS011;67981;51.022;-2.870;2023-07-22T00:36:21;2.40;;;1.13;;
78664;SDS011;67981;51.022;-2.870;2023-07-22T00:38:47;5.10;;;1.73;;
78664;SDS011;67981;51.022;-2.870;2023-07-22T00:41:12;3.80;;;1.35;;
78664;SDS011;67981;51.022;-2.870;2023-07-22T00:43:37;5.30;;;1.10;;
78664;SDS011;67981;51.022;-2.870;2023-07-22T00:46:03;3.45;;;1.30;;
78664;SDS011;67981;51.022;-2.870;2023-07-22T00:48:29;4.00;;;1.40;;
78664;SDS011;67981;51.022;-2.870;2023-07-22T00:50:55;2.40;;;1.30;;
78664;SDS011;67981;51.022;-2.870;2023-07-22T00:53:21;2.58;;;1.30;;
78664;SDS011;67981;51.022;-2.870;2023-07-22T00:55:47;2.88;;;1.75;;
78664;SDS011;67981;51.022;-2.870;2023-07-22T00:58:26;3.25;;;1.58;;
78664;SDS011;67981;51.022;-2.870;2023-07-22T01:00:52;3.45;;;1.55;;
78664;SDS011;67981;51.022;-2.870;2023-07-22T01:03:17;4.10;;;1.90;;
78664;SDS011;67981;51.022;-2.870;2023-07-22T01:05:44;3.85;;;1.50;;
78664;SDS011;67981;51.022;-2.870;2023-07-22T01:08:12;2.63;;;1.52;;
78664;SDS011;67981;51.022;-2.870;2023-07-22T01:10:39;2.58;;;1.38;;
78664;SDS011;67981;51.022;-2.870;2023-07-22T01:13:04;4.22;;;1.63;;
78664;SDS011;67981;51.022;-2.870;2023-07-22T01:15:30;3.58;;;1.77;;
78664;SDS011;67981;51.022;-2.870;2023-07-22T01:17:56;3.28;;;1.45;;
78664;SDS011;67981;51.022;-2.870;2023-07-22T01:20:26;4.75;;;1.63;;
78664;SDS011;67981;51.022;-2.870;2023-07-22T01:22:55;4.80;;;2.10;;
78664;SDS011;67981;51.022;-2.870;2023-07-22T01:25:21;4.43;;;1.70;;
78664;SDS011;67981;51.022;-2.870;2023-07-22T01:27:48;3.58;;;3.05;;
78664;SDS011;67981;51.022;-2.870;2023-07-22T01:30:14;5.20;;;1.88;;
78664;SDS011;67981;51.022;-2.870;2023-07-22T01:32:40;2.78;;;1.75;;
78664;SDS011;67981;51.022;-2.870;2023-07-22T01:35:06;3.13;;;1.80;;
78664;SDS011;67981;51.022;-2.870;2023-07-22T01:37:35;4.75;;;3.35;;
78664;SDS011;67981;51.022;-2.870;2023-07-22T01:40:01;4.43;;;1.83;;
78664;SDS011;67981;51.022;-2.870;2023-07-22T01:42:40;3.83;;;2.00;;
78664;SDS011;67981;51.022;-2.870;2023-07-22T01:45:06;3.72;;;1.90;;
78664;SDS011;67981;51.022;-2.870;2023-07-22T01:47:36;4.55;;;2.47;;
78664;SDS011;67981;51.022;-2.870;2023-07-22T01:50:03;6.47;;;2.00;;
78664;SDS011;67981;51.022;-2.870;2023-07-22T01:52:29;3.30;;;1.80;;
78664;SDS011;67981;51.022;-2.870;2023-07-22T01:54:54;3.58;;;2.00;;
78664;SDS011;67981;51.022;-2.870;2023-07-22T01:57:19;3.63;;;1.60;;
78664;SDS011;67981;51.022;-2.870;2023-07-22T01:59:45;3.90;;;1.90;;
78664;SDS011;67981;51.022;-2.870;2023-07-22T02:02:10;6.25;;;2.30;;
78664;SDS011;67981;51.022;-2.870;2023-07-22T02:04:36;4.70;;;1.83;;
78664;SDS011;67981;51.022;-2.870;2023-07-22T02:07:01;3.58;;;2.03;;
78664;SDS011;67981;51.022;-2.870;2023-07-22T02:09:26;3.50;;;1.88;;
78664;SDS011;67981;51.022;-2.870;2023-07-22T02:11:52;3.80;;;1.67;;
78664;SDS011;67981;51.022;-2.870;2023-07-22T02:14:18;3.38;;;1.85;;
78664;SDS011;67981;51.022;-2.870;2023-07-22T02:16:44;4.97;;;2.00;;
78664;SDS011;67981;51.022;-2.870;2023-07-22T02:19:09;3.70;;;1.90;;
78664;SDS011;67981;51.022;-2.870;2023-07-22T02:21:35;4.10;;;2.13;;
78664;SDS011;67981;51.022;-2.870;2023-07-22T02:24:00;6.13;;;2.70;;
78664;SDS011;67981;51.022;-2.870;2023-07-22T02:26:26;3.08;;;2.03;;
78664;SDS011;67981;51.022;-2.870;2023-07-22T02:28:51;4.25;;;1.98;;
78664;SDS011;67981;51.022;-2.870;2023-07-22T02:31:16;4.20;;;2.00;;
78664;SDS011;67981;51.022;-2.870;2023-07-22T02:33:42;6.05;;;2.30;;
78664;SDS011;67981;51.022;-2.870;2023-07-22T02:36:07;3.90;;;2.20;;
78664;SDS011;67981;51.022;-2.870;2023-07-22T02:38:33;3.97;;;2.20;;
78664;SDS011;67981;51.022;-2.870;2023-07-22T02:41:02;2.60;;;1.75;;
78664;SDS011;67981;51.022;-2.870;2023-07-22T02:43:30;3.25;;;1.58;;
78664;SDS011;67981;51.022;-2.870;2023-07-22T02:45:56;6.82;;;2.55;;
78664;SDS011;67981;51.022;-2.870;2023-07-22T02:48:21;4.60;;;1.75;;
78664;SDS011;67981;51.022;-2.870;2023-07-22T02:50:46;4.63;;;2.20;;
78664;SDS011;67981;51.022;-2.870;2023-07-22T02:53:12;4.43;;;2.00;;
78664;SDS011;67981;51.022;-2.870;2023-07-22T02:55:37;4.60;;;2.97;;
78664;SDS011;67981;51.022;-2.870;2023-07-22T02:58:03;4.00;;;1.98;;
78664;SDS011;67981;51.022;-2.870;2023-07-22T03:00:28;5.15;;;1.55;;
78664;SDS011;67981;51.022;-2.870;2023-07-22T03:02:54;4.55;;;2.00;;
78664;SDS011;67981;51.022;-2.870;2023-07-22T03:05:27;4.68;;;1.98;;
78664;SDS011;67981;51.022;-2.870;2023-07-22T03:07:53;6.55;;;2.55;;
78664;SDS011;67981;51.022;-2.870;2023-07-22T03:10:19;3.85;;;1.80;;
78664;SDS011;67981;51.022;-2.870;2023-07-22T03:12:44;7.03;;;1.80;;
78664;SDS011;67981;51.022;-2.870;2023-07-22T03:15:10;5.15;;;2.25;;
78664;SDS011;67981;51.022;-2.870;2023-07-22T03:17:38;5.63;;;1.75;;
78664;SDS011;67981;51.022;-2.870;2023-07-22T03:20:04;5.18;;;1.60;;
78664;SDS011;67981;51.022;-2.870;2023-07-22T03:22:40;5.35;;;2.10;;
78664;SDS011;67981;51.022;-2.870;2023-07-22T03:25:06;3.58;;;2.05;;
78664;SDS011;67981;51.022;-2.870;2023-07-22T03:27:35;5.55;;;2.42;;
78664;SDS011;67981;51.022;-2.870;2023-07-22T03:30:05;3.90;;;1.63;;
78664;SDS011;67981;51.022;-2.870;2023-07-22T03:32:39;4.63;;;2.58;;
78664;SDS011;67981;51.022;-2.870;2023-07-22T03:35:08;2.92;;;1.88;;
78664;SDS011;67981;51.022;-2.870;2023-07-22T03:37:37;3.28;;;1.58;;
78664;SDS011;67981;51.022;-2.870;2023-07-22T03:40:03;3.05;;;1.73;;
78664;SDS011;67981;51.022;-2.870;2023-07-22T03:42:34;4.93;;;2.13;;
78664;SDS011;67981;51.022;-2.870;2023-07-22T03:44:59;2.90;;;1.60;;
78664;SDS011;67981;51.022;-2.870;2023-07-22T03:47:25;3.97;;;1.88;;
78664;SDS011;67981;51.022;-2.870;2023-07-22T03:49:51;4.43;;;1.92;;
78664;SDS011;67981;51.022;-2.870;2023-07-22T03:52:16;3.47;;;1.93;;
78664;SDS011;67981;51.022;-2.870;2023-07-22T03:54:43;3.88;;;1.95;;
78664;SDS011;67981;51.022;-2.870;2023-07-22T03:57:09;3.35;;;1.70;;
78664;SDS011;67981;51.022;-2.870;2023-07-22T03:59:34;3.58;;;1.80;;
78664;SDS011;67981;51.022;-2.870;2023-07-22T04:02:00;5.88;;;2.25;;
78664;SDS011;67981;51.022;-2.870;2023-07-22T04:04:25;4.35;;;1.75;;
78664;SDS011;67981;51.022;-2.870;2023-07-22T04:06:51;4.03;;;2.10;;
78664;SDS011;67981;51.022;-2.870;2023-07-22T04:09:16;4.55;;;2.45;;
78664;SDS011;67981;51.022;-2.870;2023-07-22T04:11:42;5.03;;;2.00;;
78664;SDS011;67981;51.022;-2.870;2023-07-22T04:14:07;5.10;;;2.03;;
78664;SDS011;67981;51.022;-2.870;2023-07-22T04:16:32;3.93;;;1.90;;
78664;SDS011;67981;51.022;-2.870;2023-07-22T04:18:58;2.75;;;1.73;;
78664;SDS011;67981;51.022;-2.870;2023-07-22T04:21:23;4.40;;;2.00;;
78664;SDS011;67981;51.022;-2.870;2023-07-22T04:23:48;3.67;;;2.10;;
78664;SDS011;67981;51.022;-2.870;2023-07-22T04:26:14;4.32;;;1.98;;
78664;SDS011;67981;51.022;-2.870;2023-07-22T04:28:39;6.88;;;2.08;;
78664;SDS011;67981;51.022;-2.870;2023-07-22T04:31:05;5.13;;;3.33;;
78664;SDS011;67981;51.022;-2.870;2023-07-22T04:33:30;4.93;;;1.88;;
78664;SDS011;67981;51.022;-2.870;2023-07-22T04:35:57;3.97;;;2.58;;
78664;SDS011;67981;51.022;-2.870;2023-07-22T04:38:24;3.65;;;1.90;;
78664;SDS011;67981;51.022;-2.870;2023-07-22T04:40:50;4.90;;;1.92;;
78664;SDS011;67981;51.022;-2.870;2023-07-22T04:43:15;4.88;;;2.30;;
78664;SDS011;67981;51.022;-2.870;2023-07-22T04:45:43;4.47;;;2.40;;
78664;SDS011;67981;51.022;-2.870;2023-07-22T04:48:09;4.07;;;2.00;;
78664;SDS011;67981;51.022;-2.870;2023-07-22T04:50:36;3.50;;;1.98;;
78664;SDS011;67981;51.022;-2.870;2023-07-22T04:53:05;6.60;;;2.30;;
78664;SDS011;67981;51.022;-2.870;2023-07-22T04:55:31;6.05;;;1.92;;
78664;SDS011;67981;51.022;-2.870;2023-07-22T04:57:57;3.40;;;1.70;;
78664;SDS011;67981;51.022;-2.870;2023-07-22T05:00:23;5.45;;;2.33;;
78664;SDS011;67981;51.022;-2.870;2023-07-22T05:02:48;5.15;;;2.70;;
78664;SDS011;67981;51.022;-2.870;2023-07-22T05:05:14;5.95;;;2.65;;
78664;SDS011;67981;51.022;-2.870;2023-07-22T05:07:40;5.43;;;2.30;;
78664;SDS011;67981;51.022;-2.870;2023-07-22T05:10:06;5.43;;;2.20;;
78664;SDS011;67981;51.022;-2.870;2023-07-22T05:12:36;4.60;;;2.15;;
78664;SDS011;67981;51.022;-2.870;2023-07-22T05:15:06;5.22;;;2.10;;
78664;SDS011;67981;51.022;-2.870;2023-07-22T05:17:31;3.45;;;1.83;;
78664;SDS011;67981;51.022;-2.870;2023-07-22T05:19:57;5.68;;;2.47;;
78664;SDS011;67981;51.022;-2.870;2023-07-22T05:22:23;4.47;;;2.70;;
78664;SDS011;67981;51.022;-2.870;2023-07-22T05:24:49;5.50;;;2.33;;
78664;SDS011;67981;51.022;-2.870;2023-07-22T05:27:15;4.65;;;2.85;;
78664;SDS011;67981;51.022;-2.870;2023-07-22T05:29:42;5.78;;;2.50;;
78664;SDS011;67981;51.022;-2.870;2023-07-22T05:32:07;5.47;;;2.80;;
78664;SDS011;67981;51.022;-2.870;2023-07-22T05:34:33;6.13;;;3.30;;
78664;SDS011;67981;51.022;-2.870;2023-07-22T05:36:58;6.22;;;2.33;;
78664;SDS011;67981;51.022;-2.870;2023-07-22T05:39:25;4.90;;;2.53;;
78664;SDS011;67981;51.022;-2.870;2023-07-22T05:41:51;3.53;;;1.92;;
78664;SDS011;67981;51.022;-2.870;2023-07-22T05:44:16;5.53;;;2.35;;
78664;SDS011;67981;51.022;-2.870;2023-07-22T05:46:42;8.77;;;4.25;;
78664;SDS011;67981;51.022;-2.870;2023-07-22T05:49:08;4.32;;;2.28;;
78664;SDS011;67981;51.022;-2.870;2023-07-22T05:51:35;4.40;;;2.60;;
78664;SDS011;67981;51.022;-2.870;2023-07-22T05:54:01;6.20;;;2.60;;
78664;SDS011;67981;51.022;-2.870;2023-07-22T05:56:26;6.07;;;2.60;;
78664;SDS011;67981;51.022;-2.870;2023-07-22T05:58:51;6.20;;;3.17;;
78664;SDS011;67981;51.022;-2.870;2023-07-22T06:01:17;6.35;;;2.80;;
78664;SDS011;67981;51.022;-2.870;2023-07-22T06:03:42;6.22;;;2.80;;
78664;SDS011;67981;51.022;-2.870;2023-07-22T06:06:10;6.43;;;3.58;;
78664;SDS011;67981;51.022;-2.870;2023-07-22T06:08:35;6.57;;;3.17;;
78664;SDS011;67981;51.022;-2.870;2023-07-22T06:11:01;5.05;;;2.40;;
78664;SDS011;67981;51.022;-2.870;2023-07-22T06:13:26;6.00;;;3.15;;
78664;SDS011;67981;51.022;-2.870;2023-07-22T06:15:52;4.90;;;2.70;;
78664;SDS011;67981;51.022;-2.870;2023-07-22T06:18:17;4.85;;;2.90;;
78664;SDS011;67981;51.022;-2.870;2023-07-22T06:20:43;7.40;;;3.33;;
78664;SDS011;67981;51.022;-2.870;2023-07-22T06:23:09;8.88;;;3.25;;
78664;SDS011;67981;51.022;-2.870;2023-07-22T06:25:35;5.43;;;2.70;;
78664;SDS011;67981;51.022;-2.870;2023-07-22T06:28:00;5.53;;;2.90;;
78664;SDS011;67981;51.022;-2.870;2023-07-22T06:30:26;6.03;;;2.80;;
78664;SDS011;67981;51.022;-2.870;2023-07-22T06:32:52;7.18;;;2.95;;
78664;SDS011;67981;51.022;-2.870;2023-07-22T06:35:17;5.60;;;3.67;;
78664;SDS011;67981;51.022;-2.870;2023-07-22T06:37:43;4.75;;;2.50;;
78664;SDS011;67981;51.022;-2.870;2023-07-22T06:40:08;7.13;;;3.30;;
78664;SDS011;67981;51.022;-2.870;2023-07-22T06:42:34;6.95;;;2.92;;
78664;SDS011;67981;51.022;-2.870;2023-07-22T06:44:59;6.80;;;3.13;;
78664;SDS011;67981;51.022;-2.870;2023-07-22T06:47:25;3.03;;;2.13;;
78664;SDS011;67981;51.022;-2.870;2023-07-22T06:49:50;6.85;;;3.45;;
78664;SDS011;67981;51.022;-2.870;2023-07-22T06:52:16;9.47;;;3.30;;
78664;SDS011;67981;51.022;-2.870;2023-07-22T06:54:41;6.93;;;3.20;;
78664;SDS011;67981;51.022;-2.870;2023-07-22T06:57:07;8.77;;;4.68;;
78664;SDS011;67981;51.022;-2.870;2023-07-22T06:59:32;7.72;;;3.00;;
78664;SDS011;67981;51.022;-2.870;2023-07-22T07:01:58;6.32;;;3.03;;
78664;SDS011;67981;51.022;-2.870;2023-07-22T07:04:24;6.40;;;3.75;;
78664;SDS011;67981;51.022;-2.870;2023-07-22T07:06:49;6.60;;;3.40;;
78664;SDS011;67981;51.022;-2.870;2023-07-22T07:09:15;6.43;;;3.67;;
78664;SDS011;67981;51.022;-2.870;2023-07-22T07:11:40;7.22;;;3.35;;
78664;SDS011;67981;51.022;-2.870;2023-07-22T07:14:06;9.07;;;3.78;;
78664;SDS011;67981;51.022;-2.870;2023-07-22T07:16:31;9.07;;;3.30;;
78664;SDS011;67981;51.022;-2.870;2023-07-22T07:18:57;8.80;;;3.80;;
78664;SDS011;67981;51.022;-2.870;2023-07-22T07:21:24;11.20;;;3.85;;
78664;SDS011;67981;51.022;-2.870;2023-07-22T07:23:50;7.43;;;3.47;;
78664;SDS011;67981;51.022;-2.870;2023-07-22T07:26:16;7.93;;;3.72;;
78664;SDS011;67981;51.022;-2.870;2023-07-22T07:28:42;8.77;;;3.72;;
78664;SDS011;67981;51.022;-2.870;2023-07-22T07:31:08;8.02;;;4.88;;
78664;SDS011;67981;51.022;-2.870;2023-07-22T07:33:33;8.35;;;3.50;;
78664;SDS011;67981;51.022;-2.870;2023-07-22T07:35:59;8.35;;;3.78;;
78664;SDS011;67981;51.022;-2.870;2023-07-22T07:38:25;5.68;;;3.47;;
78664;SDS011;67981;51.022;-2.870;2023-07-22T07:40:55;8.57;;;3.80;;
78664;SDS011;67981;51.022;-2.870;2023-07-22T07:43:21;8.85;;;4.00;;
78664;SDS011;67981;51.022;-2.870;2023-07-22T07:45:47;7.78;;;3.85;;
78664;SDS011;67981;51.022;-2.870;2023-07-22T07:48:14;8.17;;;4.47;;
78664;SDS011;67981;51.022;-2.870;2023-07-22T07:50:39;8.82;;;4.00;;
78664;SDS011;67981;51.022;-2.870;2023-07-22T07:53:04;9.70;;;3.95;;
78664;SDS011;67981;51.022;-2.870;2023-07-22T07:55:30;9.13;;;4.07;;
78664;SDS011;67981;51.022;-2.870;2023-07-22T07:57:55;13.03;;;5.13;;
78664;SDS011;67981;51.022;-2.870;2023-07-22T08:00:21;11.80;;;4.75;;
78664;SDS011;67981;51.022;-2.870;2023-07-22T08:02:46;9.85;;;4.20;;
78664;SDS011;67981;51.022;-2.870;2023-07-22T08:05:12;11.48;;;5.18;;
78664;SDS011;67981;51.022;-2.870;2023-07-22T08:07:38;11.82;;;4.32;;
78664;SDS011;67981;51.022;-2.870;2023-07-22T08:10:04;9.35;;;4.22;;
78664;SDS011;67981;51.022;-2.870;2023-07-22T08:12:32;11.50;;;5.18;;
78664;SDS011;67981;51.022;-2.870;2023-07-22T08:14:57;10.88;;;4.82;;
78664;SDS011;67981;51.022;-2.870;2023-07-22T08:17:23;11.43;;;4.63;;
78664;SDS011;67981;51.022;-2.870;2023-07-22T08:19:48;10.73;;;4.47;;
78664;SDS011;67981;51.022;-2.870;2023-07-22T08:22:14;11.38;;;5.38;;
78664;SDS011;67981;51.022;-2.870;2023-07-22T08:24:39;13.27;;;4.90;;
78664;SDS011;67981;51.022;-2.870;2023-07-22T08:27:05;12.93;;;5.37;;
78664;SDS011;67981;51.022;-2.870;2023-07-22T08:29:30;10.60;;;5.77;;
78664;SDS011;67981;51.022;-2.870;2023-07-22T08:31:56;11.90;;;5.82;;
78664;SDS011;67981;51.022;-2.870;2023-07-22T08:34:21;13.43;;;5.22;;
78664;SDS011;67981;51.022;-2.870;2023-07-22T08:36:47;14.75;;;5.40;;
78664;SDS011;67981;51.022;-2.870;2023-07-22T08:39:12;14.07;;;5.00;;
78664;SDS011;67981;51.022;-2.870;2023-07-22T08:41:38;10.30;;;5.20;;
78664;SDS011;67981;51.022;-2.870;2023-07-22T08:44:05;12.63;;;5.60;;
78664;SDS011;67981;51.022;-2.870;2023-07-22T08:46:33;10.55;;;5.57;;
78664;SDS011;67981;51.022;-2.870;2023-07-22T08:48:59;12.98;;;5.95;;
78664;SDS011;67981;51.022;-2.870;2023-07-22T08:51:25;11.02;;;4.85;;
78664;SDS011;67981;51.022;-2.870;2023-07-22T08:53:58;12.07;;;5.43;;
78664;SDS011;67981;51.022;-2.870;2023-07-22T08:56:24;15.77;;;6.38;;
78664;SDS011;67981;51.022;-2.870;2023-07-22T08:58:53;11.65;;;5.22;;
78664;SDS011;67981;51.022;-2.870;2023-07-22T09:01:20;13.20;;;5.68;;
78664;SDS011;67981;51.022;-2.870;2023-07-22T09:03:46;15.65;;;6.50;;
78664;SDS011;67981;51.022;-2.870;2023-07-22T09:06:17;14.40;;;6.28;;
78664;SDS011;67981;51.022;-2.870;2023-07-22T09:08:43;13.57;;;7.93;;
78664;SDS011;67981;51.022;-2.870;2023-07-22T09:11:09;17.30;;;7.15;;
78664;SDS011;67981;51.022;-2.870;2023-07-22T09:13:35;16.63;;;7.32;;
78664;SDS011;67981;51.022;-2.870;2023-07-22T09:18:29;13.45;;;6.45;;
78664;SDS011;67981;51.022;-2.870;2023-07-22T09:20:54;16.95;;;6.40;;
78664;SDS011;67981;51.022;-2.870;2023-07-22T09:23:31;13.43;;;5.87;;
78664;SDS011;67981;51.022;-2.870;2023-07-22T09:26:13;14.07;;;7.63;;
78664;SDS011;67981;51.022;-2.870;2023-07-22T09:31:18;14.05;;;5.82;;
78664;SDS011;67981;51.022;-2.870;2023-07-22T09:33:45;15.73;;;7.57;;
78664;SDS011;67981;51.022;-2.870;2023-07-22T09:36:10;21.17;;;7.72;;
78664;SDS011;67981;51.022;-2.870;2023-07-22T09:38:37;13.13;;;6.78;;
78664;SDS011;67981;51.022;-2.870;2023-07-22T09:41:02;17.10;;;7.03;;
78664;SDS011;67981;51.022;-2.870;2023-07-22T09:43:29;17.08;;;7.55;;
78664;SDS011;67981;51.022;-2.870;2023-07-22T09:45:55;17.67;;;8.30;;
78664;SDS011;67981;51.022;-2.870;2023-07-22T09:48:21;16.35;;;7.05;;
78664;SDS011;67981;51.022;-2.870;2023-07-22T09:50:55;15.27;;;7.20;;
78664;SDS011;67981;51.022;-2.870;2023-07-22T09:53:21;19.17;;;7.13;;
78664;SDS011;67981;51.022;-2.870;2023-07-22T09:55:46;17.50;;;7.38;;
78664;SDS011;67981;51.022;-2.870;2023-07-22T09:58:12;19.20;;;7.65;;
78664;SDS011;67981;51.022;-2.870;2023-07-22T10:00:39;15.82;;;6.90;;
78664;SDS011;67981;51.022;-2.870;2023-07-22T10:03:10;17.05;;;8.75;;
78664;SDS011;67981;51.022;-2.870;2023-07-22T10:05:37;18.05;;;7.57;;
78664;SDS011;67981;51.022;-2.870;2023-07-22T10:08:05;15.43;;;7.78;;
78664;SDS011;67981;51.022;-2.870;2023-07-22T10:12:56;16.67;;;6.70;;
78664;SDS011;67981;51.022;-2.870;2023-07-22T10:15:23;16.92;;;8.30;;
78664;SDS011;67981;51.022;-2.870;2023-07-22T10:17:50;18.52;;;7.32;;
78664;SDS011;67981;51.022;-2.870;2023-07-22T10:20:16;12.75;;;5.95;;
78664;SDS011;67981;51.022;-2.870;2023-07-22T10:22:45;15.82;;;6.35;;
78664;SDS011;67981;51.022;-2.870;2023-07-22T10:25:13;14.20;;;6.93;;
78664;SDS011;67981;51.022;-2.870;2023-07-22T10:27:41;8.00;;;3.88;;
78664;SDS011;67981;51.022;-2.870;2023-07-22T10:30:07;10.10;;;4.25;;
78664;SDS011;67981;51.022;-2.870;2023-07-22T10:32:35;11.07;;;4.68;;
78664;SDS011;67981;51.022;-2.870;2023-07-22T10:35:02;7.43;;;3.75;;
78664;SDS011;67981;51.022;-2.870;2023-07-22T10:37:34;9.70;;;4.82;;
78664;SDS011;67981;51.022;-2.870;2023-07-22T10:40:00;10.68;;;4.38;;
78664;SDS011;67981;51.022;-2.870;2023-07-22T10:42:51;9.02;;;4.45;;
78664;SDS011;67981;51.022;-2.870;2023-07-22T10:48:07;8.20;;;3.65;;
78664;SDS011;67981;51.022;-2.870;2023-07-22T10:50:38;10.38;;;4.20;;
78664;SDS011;67981;51.022;-2.870;2023-07-22T10:58:30;8.90;;;3.40;;
78664;SDS011;67981;51.022;-2.870;2023-07-22T11:01:00;10.65;;;4.40;;
78664;SDS011;67981;51.022;-2.870;2023-07-22T11:14:31;11.27;;;5.03;;
78664;SDS011;67981;51.022;-2.870;2023-07-22T11:16:59;8.88;;;4.53;;
78664;SDS011;67981;51.022;-2.870;2023-07-22T11:19:27;9.98;;;5.30;;
78664;SDS011;67981;51.022;-2.870;2023-07-22T11:21:52;8.77;;;4.30;;
78664;SDS011;67981;51.022;-2.870;2023-07-22T11:24:19;8.55;;;3.67;;
78664;SDS011;67981;51.022;-2.870;2023-07-22T11:26:46;7.35;;;4.20;;
78664;SDS011;67981;51.022;-2.870;2023-07-22T11:29:12;8.20;;;4.88;;
78664;SDS011;67981;51.022;-2.870;2023-07-22T11:31:39;11.57;;;5.85;;
78664;SDS011;67981;51.022;-2.870;2023-07-22T11:34:08;9.98;;;5.00;;
78664;SDS011;67981;51.022;-2.870;2023-07-22T11:36:34;8.15;;;4.32;;
78664;SDS011;67981;51.022;-2.870;2023-07-22T11:41:56;8.63;;;4.78;;
78664;SDS011;67981;51.022;-2.870;2023-07-22T11:46:53;9.07;;;3.60;;
78664;SDS011;67981;51.022;-2.870;2023-07-22T11:49:22;7.60;;;3.40;;
78664;SDS011;67981;51.022;-2.870;2023-07-22T11:51:49;7.15;;;3.78;;
78664;SDS011;67981;51.022;-2.870;2023-07-22T11:54:14;6.80;;;3.50;;
78664;SDS011;67981;51.022;-2.870;2023-07-22T11:56:42;8.10;;;4.45;;
78664;SDS011;67981;51.022;-2.870;2023-07-22T11:59:08;9.80;;;3.75;;
78664;SDS011;67981;51.022;-2.870;2023-07-22T12:01:33;7.63;;;3.70;;
78664;SDS011;67981;51.022;-2.870;2023-07-22T12:03:59;9.80;;;4.45;;
78664;SDS011;67981;51.022;-2.870;2023-07-22T12:06:26;8.23;;;3.35;;
78664;SDS011;67981;51.022;-2.870;2023-07-22T12:08:52;6.15;;;3.38;;
78664;SDS011;67981;51.022;-2.870;2023-07-22T12:11:19;6.80;;;3.10;;
78664;SDS011;67981;51.022;-2.870;2023-07-22T12:16:35;6.10;;;3.22;;
78664;SDS011;67981;51.022;-2.870;2023-07-22T12:19:02;5.38;;;2.95;;
78664;SDS011;67981;51.022;-2.870;2023-07-22T12:21:27;5.90;;;2.78;;
78664;SDS011;67981;51.022;-2.870;2023-07-22T12:23:53;5.57;;;2.90;;
78664;SDS011;67981;51.022;-2.870;2023-07-22T12:26:18;5.70;;;3.13;;
78664;SDS011;67981;51.022;-2.870;2023-07-22T12:28:44;5.63;;;2.50;;
78664;SDS011;67981;51.022;-2.870;2023-07-22T12:31:09;4.90;;;2.58;;
78664;SDS011;67981;51.022;-2.870;2023-07-22T12:33:35;3.97;;;1.90;;
78664;SDS011;67981;51.022;-2.870;2023-07-22T12:36:00;4.40;;;1.80;;
78664;SDS011;67981;51.022;-2.870;2023-07-22T12:38:25;6.05;;;1.73;;
78664;SDS011;67981;51.022;-2.870;2023-07-22T12:40:51;5.22;;;1.70;;
78664;SDS011;67981;51.022;-2.870;2023-07-22T12:43:16;3.85;;;2.17;;
78664;SDS011;67981;51.022;-2.870;2023-07-22T12:45:42;5.68;;;3.30;;
78664;SDS011;67981;51.022;-2.870;2023-07-22T12:48:07;5.05;;;1.75;;
78664;SDS011;67981;51.022;-2.870;2023-07-22T12:50:33;3.55;;;1.63;;
78664;SDS011;67981;51.022;-2.870;2023-07-22T12:52:58;4.72;;;1.75;;
78664;SDS011;67981;51.022;-2.870;2023-07-22T12:55:24;2.92;;;1.80;;
78664;SDS011;67981;51.022;-2.870;2023-07-22T12:57:50;3.63;;;2.05;;
78664;SDS011;67981;51.022;-2.870;2023-07-22T13:00:15;6.57;;;3.03;;
78664;SDS011;67981;51.022;-2.870;2023-07-22T13:02:41;4.40;;;2.70;;
78664;SDS011;67981;51.022;-2.870;2023-07-22T13:05:06;4.53;;;2.78;;
78664;SDS011;67981;51.022;-2.870;2023-07-22T13:07:32;5.03;;;3.20;;
78664;SDS011;67981;51.022;-2.870;2023-07-22T13:09:58;4.78;;;2.45;;
78664;SDS011;67981;51.022;-2.870;2023-07-22T13:12:26;6.20;;;1.83;;
78664;SDS011;67981;51.022;-2.870;2023-07-22T13:14:51;4.93;;;2.35;;
78664;SDS011;67981;51.022;-2.870;2023-07-22T13:17:17;4.40;;;1.60;;
78664;SDS011;67981;51.022;-2.870;2023-07-22T13:19:42;5.18;;;1.98;;
78664;SDS011;67981;51.022;-2.870;2023-07-22T13:22:08;4.70;;;1.52;;
78664;SDS011;67981;51.022;-2.870;2023-07-22T13:24:33;5.50;;;1.83;;
78664;SDS011;67981;51.022;-2.870;2023-07-22T13:26:58;4.60;;;2.00;;
78664;SDS011;67981;51.022;-2.870;2023-07-22T13:29:24;4.07;;;2.20;;
78664;SDS011;67981;51.022;-2.870;2023-07-22T13:31:49;4.97;;;1.95;;
78664;SDS011;67981;51.022;-2.870;2023-07-22T13:34:15;4.03;;;1.60;;
78664;SDS011;67981;51.022;-2.870;2023-07-22T13:36:40;3.75;;;2.00;;
78664;SDS011;67981;51.022;-2.870;2023-07-22T13:39:06;5.82;;;2.20;;
78664;SDS011;67981;51.022;-2.870;2023-07-22T13:41:31;6.03;;;1.80;;
78664;SDS011;67981;51.022;-2.870;2023-07-22T13:43:56;5.18;;;2.20;;
78664;SDS011;67981;51.022;-2.870;2023-07-22T13:46:22;5.53;;;2.08;;
78664;SDS011;67981;51.022;-2.870;2023-07-22T13:48:48;6.82;;;2.08;;
78664;SDS011;67981;51.022;-2.870;2023-07-22T13:51:16;4.10;;;1.92;;
78664;SDS011;67981;51.022;-2.870;2023-07-22T13:53:42;9.10;;;3.47;;
78664;SDS011;67981;51.022;-2.870;2023-07-22T13:56:07;7.90;;;2.35;;
78664;SDS011;67981;51.022;-2.870;2023-07-22T13:58:33;5.45;;;2.17;;
78664;SDS011;67981;51.022;-2.870;2023-07-22T14:00:58;3.67;;;1.60;;
78664;SDS011;67981;51.022;-2.870;2023-07-22T14:03:23;3.75;;;1.60;;
78664;SDS011;67981;51.022;-2.870;2023-07-22T14:05:49;2.58;;;1.50;;
78664;SDS011;67981;51.022;-2.870;2023-07-22T14:08:14;3.42;;;1.70;;
78664;SDS011;67981;51.022;-2.870;2023-07-22T14:10:39;3.17;;;1.27;;
78664;SDS011;67981;51.022;-2.870;2023-07-22T14:13:05;2.80;;;1.20;;
78664;SDS011;67981;51.022;-2.870;2023-07-22T14:15:31;2.78;;;1.52;;
78664;SDS011;67981;51.022;-2.870;2023-07-22T14:17:56;2.70;;;1.10;;
78664;SDS011;67981;51.022;-2.870;2023-07-22T14:20:21;3.30;;;1.17;;
78664;SDS011;67981;51.022;-2.870;2023-07-22T14:22:47;3.40;;;1.15;;
78664;SDS011;67981;51.022;-2.870;2023-07-22T14:25:15;4.45;;;1.23;;
78664;SDS011;67981;51.022;-2.870;2023-07-22T14:27:41;2.28;;;1.13;;
78664;SDS011;67981;51.022;-2.870;2023-07-22T14:30:07;3.72;;;1.25;;
78664;SDS011;67981;51.022;-2.870;2023-07-22T14:32:33;1.55;;;0.70;;
78664;SDS011;67981;51.022;-2.870;2023-07-22T14:34:59;2.45;;;0.80;;
78664;SDS011;67981;51.022;-2.870;2023-07-22T14:37:24;2.13;;;0.90;;
78664;SDS011;67981;51.022;-2.870;2023-07-22T14:39:50;1.60;;;0.90;;
78664;SDS011;67981;51.022;-2.870;2023-07-22T14:42:15;1.88;;;0.90;;
78664;SDS011;67981;51.022;-2.870;2023-07-22T14:44:41;2.78;;;1.30;;
78664;SDS011;67981;51.022;-2.870;2023-07-22T14:47:06;3.80;;;1.20;;
78664;SDS011;67981;51.022;-2.870;2023-07-22T14:49:31;2.63;;;1.00;;
78664;SDS011;67981;51.022;-2.870;2023-07-22T14:51:57;1.88;;;0.88;;
78664;SDS011;67981;51.022;-2.870;2023-07-22T14:54:22;2.88;;;1.08;;
78664;SDS011;67981;51.022;-2.870;2023-07-22T14:56:48;2.10;;;0.93;;
78664;SDS011;67981;51.022;-2.870;2023-07-22T14:59:14;2.47;;;1.10;;
78664;SDS011;67981;51.022;-2.870;2023-07-22T15:01:40;1.27;;;0.80;;
78664;SDS011;67981;51.022;-2.870;2023-07-22T15:04:06;1.50;;;0.70;;